createdAt,value
2018-01-19T00:01:45.712Z,99204.00
2018-01-19T00:04:13.153Z,99183.30
2018-01-19T00:06:40.585Z,99174.34
2018-01-19T00:09:08.040Z,99197.12
2018-01-19T00:11:35.476Z,99189.11
2018-01-19T00:14:03.089Z,99194.39
2018-01-19T00:16:30.549Z,99212.73
2018-01-19T00:18:58.073Z,99211.72
2018-01-19T00:21:25.532Z,99207.07
2018-01-19T00:23:52.965Z,99210.36
2018-01-19T00:26:20.718Z,99203.78
2018-01-19T00:28:48.157Z,99199.36
2018-01-19T00:31:15.591Z,99197.62
2018-01-19T00:33:43.072Z,99188.97
2018-01-19T00:36:10.512Z,99187.81
2018-01-19T00:38:38.212Z,99188.42
2018-01-19T00:41:05.649Z,99190.70
2018-01-19T00:43:33.085Z,99198.80
2018-01-19T00:46:00.545Z,99188.94
2018-01-19T00:48:27.977Z,99193.95
2018-01-19T00:50:55.543Z,99203.77
2018-01-19T00:53:22.972Z,99195.21
2018-01-19T00:55:50.409Z,99206.59
2018-01-19T00:58:17.873Z,99204.17
2018-01-19T01:00:45.306Z,99205.59
2018-01-19T01:03:12.770Z,99221.38
2018-01-19T01:05:40.228Z,99207.53
2018-01-19T01:08:07.657Z,99209.73
2018-01-19T01:10:35.116Z,99201.57
2018-01-19T01:13:02.577Z,99221.30
2018-01-19T01:15:30.257Z,99230.95
2018-01-19T01:17:57.693Z,99236.92
2018-01-19T01:20:25.171Z,99243.92
2018-01-19T01:22:52.626Z,99242.08
2018-01-19T01:25:20.089Z,99250.08
2018-01-19T01:27:47.785Z,99266.89
2018-01-19T01:30:15.225Z,99262.35
2018-01-19T01:32:42.658Z,99275.65
2018-01-19T01:35:10.119Z,99278.09
2018-01-19T01:37:37.548Z,99281.92
2018-01-19T01:40:05.334Z,99291.66
2018-01-19T01:42:32.768Z,99293.28
2018-01-19T01:45:00.205Z,99284.96
2018-01-19T01:47:27.658Z,99297.17
2018-01-19T01:49:55.120Z,99290.71
2018-01-19T01:52:22.825Z,99296.39
2018-01-19T01:54:50.257Z,99306.47
2018-01-19T01:57:17.692Z,99307.14
2018-01-19T01:59:45.145Z,99314.19
2018-01-19T02:02:12.582Z,99316.53
2018-01-19T02:04:40.209Z,99315.19
2018-01-19T02:07:07.667Z,99310.70
2018-01-19T02:09:35.096Z,99317.64
2018-01-19T02:12:02.550Z,99317.53
2018-01-19T02:14:29.980Z,99326.20
2018-01-19T02:16:57.444Z,99329.95
2018-01-19T02:19:24.880Z,99329.47
2018-01-19T02:21:52.333Z,99336.45
2018-01-19T02:24:19.797Z,99342.95
2018-01-19T02:26:47.237Z,99349.98
2018-01-19T02:29:14.727Z,99347.55
2018-01-19T02:31:42.169Z,99359.53
2018-01-19T02:34:09.608Z,99359.43
2018-01-19T02:36:37.061Z,99366.16
2018-01-19T02:39:04.494Z,99372.44
2018-01-19T02:41:32.413Z,99369.88
2018-01-19T02:43:59.858Z,99366.06
2018-01-19T02:46:27.292Z,99363.17
2018-01-19T02:48:54.749Z,99360.58
2018-01-19T02:51:22.197Z,99354.81
2018-01-19T02:53:49.921Z,99354.42
2018-01-19T02:56:17.361Z,99353.34
2018-01-19T02:58:44.792Z,99343.56
2018-01-19T03:01:12.244Z,99346.89
2018-01-19T03:03:39.679Z,99354.73
2018-01-19T03:06:07.437Z,99370.45
2018-01-19T03:08:34.880Z,99373.28
2018-01-19T03:11:02.314Z,99392.45
2018-01-19T03:13:29.781Z,99396.23
2018-01-19T03:15:57.247Z,99393.81
2018-01-19T03:18:25.124Z,99393.81
2018-01-19T03:20:52.634Z,99394.98
2018-01-19T03:23:20.090Z,99400.84
2018-01-19T03:25:47.545Z,99398.79
2018-01-19T03:28:14.977Z,99400.00
2018-01-19T03:30:42.593Z,99401.06
2018-01-19T03:33:10.026Z,99413.84
2018-01-19T03:35:37.461Z,99412.11
2018-01-19T03:38:04.917Z,99407.25
2018-01-19T03:40:32.348Z,99414.70
2018-01-19T03:42:59.832Z,99418.44
2018-01-19T03:45:27.260Z,99417.16
2018-01-19T03:47:54.693Z,99427.16
2018-01-19T03:50:22.154Z,99431.09
2018-01-19T03:52:49.644Z,99435.75
2018-01-19T03:55:17.102Z,99439.25
2018-01-19T03:57:44.535Z,99438.31
2018-01-19T04:00:11.976Z,99441.72
2018-01-19T04:02:39.425Z,99442.25
2018-01-19T04:05:06.853Z,99445.60
2018-01-19T04:07:34.568Z,99458.63
2018-01-19T04:10:02.009Z,99461.19
2018-01-19T04:12:29.449Z,99466.47
2018-01-19T04:14:56.914Z,99467.44
2018-01-19T04:17:24.352Z,99466.17
2018-01-19T04:19:52.159Z,99470.16
2018-01-19T04:22:19.593Z,99464.52
2018-01-19T04:24:47.036Z,99462.64
2018-01-19T04:27:14.493Z,99461.48
2018-01-19T04:29:41.938Z,99466.76
2018-01-19T04:32:09.642Z,99467.87
2018-01-19T04:34:37.085Z,99465.25
2018-01-19T04:37:04.513Z,99467.34
2018-01-19T04:39:31.969Z,99475.91
2018-01-19T04:41:59.401Z,99484.98
2018-01-19T04:44:26.874Z,99493.48
2018-01-19T04:46:54.308Z,99494.29
2018-01-19T04:49:21.773Z,99502.46
2018-01-19T04:51:49.224Z,99495.88
2018-01-19T04:54:16.677Z,99512.38
2018-01-19T04:56:44.309Z,99516.95
2018-01-19T04:59:11.750Z,99512.35
2018-01-19T05:01:39.180Z,99516.20
2018-01-19T05:04:06.649Z,99512.34
2018-01-19T05:06:34.097Z,99518.71
2018-01-19T05:09:01.694Z,99524.81
2018-01-19T05:11:29.130Z,99523.41
2018-01-19T05:13:56.770Z,99526.33
2018-01-19T05:16:24.228Z,99534.18
2018-01-19T05:18:51.661Z,99535.98
2018-01-19T05:21:19.494Z,99537.01
2018-01-19T05:23:46.920Z,99544.11
2018-01-19T05:26:14.357Z,99549.61
2018-01-19T05:28:41.813Z,99558.23
2018-01-19T05:31:09.350Z,99562.50
2018-01-19T05:33:36.828Z,99562.78
2018-01-19T05:36:04.281Z,99570.53
2018-01-19T05:38:31.720Z,99568.26
2018-01-19T05:40:59.173Z,99573.05
2018-01-19T05:43:26.605Z,99574.83
2018-01-19T05:45:54.273Z,99576.12
2018-01-19T05:48:21.705Z,99579.00
2018-01-19T05:50:49.157Z,99566.61
2018-01-19T05:53:16.634Z,99573.64
2018-01-19T05:55:44.068Z,99578.16
2018-01-19T05:58:11.850Z,99574.36
2018-01-19T06:00:39.311Z,99572.96
2018-01-19T06:03:06.769Z,99582.20
2018-01-19T06:05:34.249Z,99588.27
2018-01-19T06:08:01.689Z,99594.64
2018-01-19T06:10:29.444Z,99596.05
2018-01-19T06:12:56.894Z,99603.62
2018-01-19T06:15:24.336Z,99602.23
2018-01-19T06:17:51.796Z,99604.98
2018-01-19T06:20:19.233Z,99610.59
2018-01-19T06:22:46.929Z,99618.38
2018-01-19T06:25:14.387Z,99622.77
2018-01-19T06:27:41.831Z,99629.07
2018-01-19T06:30:09.305Z,99632.77
2018-01-19T06:32:36.737Z,99638.41
2018-01-19T06:35:04.428Z,99641.66
2018-01-19T06:37:31.869Z,99645.30
2018-01-19T06:39:59.393Z,99659.95
2018-01-19T06:42:27.074Z,99662.49
2018-01-19T06:44:54.517Z,99664.55
2018-01-19T06:47:22.132Z,99663.11
2018-01-19T06:49:49.572Z,99672.09
2018-01-19T06:52:17.009Z,99667.92
2018-01-19T06:54:44.486Z,99670.83
2018-01-19T06:57:11.939Z,99673.73
2018-01-19T06:59:39.404Z,99669.70
2018-01-19T07:02:06.847Z,99676.00
2018-01-19T07:04:34.281Z,99683.40
2018-01-19T07:07:01.737Z,99681.94
2018-01-19T07:09:29.171Z,99684.28
2018-01-19T07:11:56.792Z,99692.55
2018-01-19T07:14:24.231Z,99690.23
2018-01-19T07:16:51.660Z,99690.25
2018-01-19T07:19:19.116Z,99694.69
2018-01-19T07:21:46.564Z,99696.09
2018-01-19T07:24:14.213Z,99703.48
2018-01-19T07:26:41.657Z,99709.09
2018-01-19T07:29:09.097Z,99709.98
2018-01-19T07:31:36.564Z,99711.23
2018-01-19T07:34:04.257Z,99717.70
2018-01-19T07:36:32.017Z,99719.00
2018-01-19T07:38:59.449Z,99727.12
2018-01-19T07:41:26.882Z,99730.89
2018-01-19T07:43:54.342Z,99741.35
2018-01-19T07:46:21.799Z,99741.80
2018-01-19T07:48:49.376Z,99744.91
2018-01-19T07:51:16.833Z,99745.80
2018-01-19T07:53:44.268Z,99746.22
2018-01-19T07:56:11.726Z,99751.89
2018-01-19T07:58:39.169Z,99751.98
2018-01-19T08:01:07.031Z,99755.45
2018-01-19T08:03:34.465Z,99757.80
2018-01-19T08:06:01.904Z,99767.81
2018-01-19T08:08:29.357Z,99770.34
2018-01-19T08:10:56.807Z,99775.82
2018-01-19T08:13:24.328Z,99788.06
2018-01-19T08:15:51.776Z,99788.94
2018-01-19T08:18:19.226Z,99787.08
2018-01-19T08:20:46.683Z,99789.77
2018-01-19T08:23:14.113Z,99791.66
2018-01-19T08:25:41.898Z,99791.58
2018-01-19T08:28:09.457Z,99796.72
2018-01-19T08:30:36.961Z,99801.28
2018-01-19T08:33:04.413Z,99804.40
2018-01-19T08:35:31.853Z,99797.94
2018-01-19T08:37:59.595Z,99808.38
2018-01-19T08:40:27.025Z,99810.03
2018-01-19T08:42:54.503Z,99812.64
2018-01-19T08:45:21.964Z,99809.45
2018-01-19T08:47:49.404Z,99810.70
2018-01-19T08:50:17.078Z,99808.95
2018-01-19T08:52:44.525Z,99809.23
2018-01-19T08:55:11.972Z,99811.45
2018-01-19T08:57:39.429Z,99817.94
2018-01-19T09:00:06.861Z,99816.67
2018-01-19T09:02:34.360Z,99820.08
2018-01-19T09:05:02.654Z,99819.84
2018-01-19T09:07:30.089Z,99820.42
2018-01-19T09:09:57.545Z,99823.23
2018-01-19T09:12:24.985Z,99823.67
2018-01-19T09:14:52.621Z,99829.88
2018-01-19T09:17:20.057Z,99828.67
2018-01-19T09:19:47.501Z,99838.56
2018-01-19T09:22:14.964Z,99839.84
2018-01-19T09:24:42.400Z,99852.66
2018-01-19T09:27:10.121Z,99844.84
2018-01-19T09:29:37.564Z,99856.91
2018-01-19T09:32:05.020Z,99868.89
2018-01-19T09:34:32.492Z,99878.37
2018-01-19T09:36:59.935Z,99876.50
2018-01-19T09:39:27.638Z,99889.32
2018-01-19T09:41:55.077Z,99903.83
2018-01-19T09:44:22.516Z,99900.34
2018-01-19T09:46:49.992Z,99904.14
2018-01-19T09:49:17.428Z,99912.54
2018-01-19T09:51:45.125Z,99918.35
2018-01-19T09:54:12.557Z,99919.45
2018-01-19T09:56:40.009Z,99922.41
2018-01-19T09:59:07.929Z,99931.81
2018-01-19T10:01:35.365Z,99936.34
2018-01-19T10:04:03.441Z,99939.02
2018-01-19T10:06:30.877Z,99937.94
2018-01-19T10:08:58.336Z,99943.80
2018-01-19T10:11:25.789Z,99940.90
2018-01-19T10:13:53.237Z,99943.73
2018-01-19T10:16:20.876Z,99941.59
2018-01-19T10:18:48.456Z,99944.69
2018-01-19T10:21:15.893Z,99938.92
2018-01-19T10:23:43.360Z,99952.33
2018-01-19T10:26:10.804Z,99945.47
2018-01-19T10:28:38.508Z,99945.27
2018-01-19T10:31:05.941Z,99946.47
2018-01-19T10:33:33.436Z,99948.37
2018-01-19T10:36:00.912Z,99948.48
2018-01-19T10:38:28.348Z,99950.19
2018-01-19T10:40:56.003Z,99959.77
2018-01-19T10:43:23.432Z,99955.23
2018-01-19T10:45:50.869Z,99959.61
2018-01-19T10:48:18.328Z,99957.34
2018-01-19T10:50:45.769Z,99966.97
2018-01-19T10:53:13.337Z,99967.70
2018-01-19T10:55:40.768Z,99960.25
2018-01-19T10:58:08.305Z,99964.05
2018-01-19T11:00:35.784Z,99966.20
2018-01-19T11:03:03.236Z,99960.14
2018-01-19T11:05:30.977Z,99973.50
2018-01-19T11:07:58.404Z,99961.34
2018-01-19T11:10:25.853Z,99961.42
2018-01-19T11:12:53.309Z,99962.02
2018-01-19T11:15:20.880Z,99957.59
2018-01-19T11:17:48.587Z,99956.16
2018-01-19T11:20:16.024Z,99963.37
2018-01-19T11:22:43.457Z,99955.56
2018-01-19T11:25:10.913Z,99958.44
2018-01-19T11:27:38.349Z,99951.77
2018-01-19T11:30:06.065Z,99947.44
2018-01-19T11:32:33.501Z,99952.77
2018-01-19T11:35:01.021Z,99947.31
2018-01-19T11:37:28.478Z,99952.97
2018-01-19T11:39:55.908Z,99949.55
2018-01-19T11:42:23.392Z,99956.55
2018-01-19T11:44:50.820Z,99951.27
2018-01-19T11:47:18.273Z,99956.94
2018-01-19T11:49:45.732Z,99953.92
2018-01-19T11:52:13.164Z,99966.35
2018-01-19T11:54:41.021Z,99954.47
2018-01-19T11:57:08.453Z,99948.67
2018-01-19T11:59:35.891Z,99953.73
2018-01-19T12:02:03.350Z,99949.08
2018-01-19T12:04:30.788Z,99938.50
2018-01-19T12:06:58.409Z,99947.39
2018-01-19T12:09:25.897Z,99944.41
2018-01-19T12:11:53.330Z,99945.11
2018-01-19T12:14:20.799Z,99950.69
2018-01-19T12:16:48.237Z,99943.15
2018-01-19T12:19:15.725Z,99939.13
2018-01-19T12:21:43.173Z,99935.06
2018-01-19T12:24:10.864Z,99935.63
2018-01-19T12:26:38.324Z,99935.17
2018-01-19T12:29:05.757Z,99927.77
2018-01-19T12:31:33.224Z,99917.00
2018-01-19T12:34:00.658Z,99924.23
2018-01-19T12:36:28.092Z,99917.65
2018-01-19T12:38:55.558Z,99920.64
2018-01-19T12:41:22.993Z,99917.13
2018-01-19T12:43:50.703Z,99917.20
2018-01-19T12:46:18.136Z,99922.42
2018-01-19T12:48:45.565Z,99914.08
2018-01-19T12:51:13.041Z,99909.89
2018-01-19T12:53:40.481Z,99904.69
2018-01-19T12:56:08.068Z,99905.95
2018-01-19T12:58:35.509Z,99905.02
2018-01-19T13:01:02.988Z,99909.91
2018-01-19T13:03:30.745Z,99898.16
2018-01-19T13:05:58.185Z,99900.92
2018-01-19T13:08:25.648Z,99902.05
2018-01-19T13:10:53.082Z,99899.32
2018-01-19T13:13:20.517Z,99898.86
2018-01-19T13:15:47.976Z,99899.27
2018-01-19T13:18:15.411Z,99900.63
2018-01-19T13:20:43.026Z,99894.63
2018-01-19T13:23:10.486Z,99902.25
2018-01-19T13:25:37.920Z,99897.62
2018-01-19T13:28:05.381Z,99902.48
2018-01-19T13:30:32.832Z,99895.35
2018-01-19T13:33:00.725Z,99899.71
2018-01-19T13:35:28.174Z,99898.19
2018-01-19T13:37:55.613Z,99895.84
2018-01-19T13:40:23.069Z,99898.92
2018-01-19T13:42:50.529Z,99901.05
2018-01-19T13:45:18.041Z,99892.21
2018-01-19T13:47:45.473Z,99890.22
2018-01-19T13:50:12.904Z,99882.41
2018-01-19T13:52:40.365Z,99884.57
2018-01-19T13:55:07.803Z,99877.66
2018-01-19T13:57:35.260Z,99882.05
2018-01-19T14:00:02.764Z,99873.49
2018-01-19T14:02:30.212Z,99875.74
2018-01-19T14:04:57.676Z,99879.91
2018-01-19T14:07:25.121Z,99884.23
2018-01-19T14:09:52.594Z,99881.31
2018-01-19T14:12:20.057Z,99884.05
2018-01-19T14:14:47.492Z,99872.68
2018-01-19T14:17:14.925Z,99874.96
2018-01-19T14:19:42.381Z,99877.71
2018-01-19T14:22:09.836Z,99884.16
2018-01-19T14:24:37.296Z,99879.41
2018-01-19T14:27:04.748Z,99875.48
2018-01-19T14:29:32.181Z,99878.81
2018-01-19T14:31:59.613Z,99875.16
2018-01-19T14:34:27.083Z,99870.74
2018-01-19T14:36:54.521Z,99870.92
2018-01-19T14:39:21.989Z,99873.60
2018-01-19T14:41:49.458Z,99873.75
2018-01-19T14:44:16.942Z,99869.84
2018-01-19T14:46:44.398Z,99869.31
2018-01-19T14:49:12.078Z,99872.77
2018-01-19T14:51:39.525Z,99866.92
2018-01-19T14:54:06.994Z,99866.97
2018-01-19T14:56:34.654Z,99866.78
2018-01-19T14:59:02.088Z,99874.33
2018-01-19T15:01:29.543Z,99870.70
2018-01-19T15:03:57.320Z,99877.27
2018-01-19T15:06:24.769Z,99883.25
2018-01-19T15:08:52.228Z,99880.18
2018-01-19T15:11:19.780Z,99892.10
2018-01-19T15:13:47.385Z,99929.59
2018-01-19T15:16:14.817Z,99932.63
2018-01-19T15:18:42.316Z,99927.04
2018-01-19T15:21:09.803Z,99927.19
2018-01-19T15:23:37.276Z,99922.88
2018-01-19T15:26:05.053Z,99920.66
2018-01-19T15:28:32.541Z,99911.08
2018-01-19T15:30:59.993Z,99912.52
2018-01-19T15:33:27.453Z,99900.79
2018-01-19T15:35:54.884Z,99884.16
2018-01-19T15:38:22.324Z,99893.00
2018-01-19T15:40:49.995Z,99889.86
2018-01-19T15:43:17.462Z,99895.11
2018-01-19T15:45:44.894Z,99895.29
2018-01-19T15:48:12.377Z,99893.90
2018-01-19T15:50:39.809Z,99896.94
2018-01-19T15:53:07.259Z,99895.29
2018-01-19T15:55:34.892Z,99896.49
2018-01-19T15:58:02.405Z,99896.18
2018-01-19T16:00:29.849Z,99890.82
2018-01-19T16:02:57.341Z,99889.19
2018-01-19T16:05:24.784Z,99882.69
2018-01-19T16:07:52.539Z,99882.93
2018-01-19T16:10:19.986Z,99885.89
2018-01-19T16:12:47.418Z,99891.56
2018-01-19T16:15:15.052Z,99888.89
2018-01-19T16:17:42.499Z,99891.55
2018-01-19T16:20:10.281Z,99894.23
2018-01-19T16:22:37.744Z,99895.97
2018-01-19T16:25:05.184Z,99896.38
2018-01-19T16:27:32.652Z,99906.86
2018-01-19T16:30:00.102Z,99902.55
2018-01-19T16:32:28.019Z,99905.59
2018-01-19T16:34:55.534Z,99907.88
2018-01-19T16:37:22.964Z,99908.83
2018-01-19T16:39:50.429Z,99904.14
2018-01-19T16:42:17.861Z,99909.33
2018-01-19T16:44:45.543Z,99915.47
2018-01-19T16:47:12.969Z,99906.34
2018-01-19T16:49:40.429Z,99899.58
2018-01-19T16:52:07.893Z,99898.98
2018-01-19T16:54:35.338Z,99895.16
2018-01-19T16:57:02.941Z,99891.51
2018-01-19T16:59:30.383Z,99897.31
2018-01-19T17:01:57.817Z,99896.80
2018-01-19T17:04:25.296Z,99901.75
2018-01-19T17:06:52.755Z,99903.18
2018-01-19T17:09:20.413Z,99904.50
2018-01-19T17:11:47.870Z,99902.77
2018-01-19T17:14:15.309Z,99903.63
2018-01-19T17:16:42.787Z,99911.90
2018-01-19T17:19:10.244Z,99915.88
2018-01-19T17:21:37.961Z,99916.56
2018-01-19T17:24:05.397Z,99917.72
2018-01-19T17:26:32.828Z,99913.67
2018-01-19T17:29:00.304Z,99909.41
2018-01-19T17:31:27.849Z,99910.73
2018-01-19T17:33:55.320Z,99904.53
2018-01-19T17:36:22.754Z,99901.13
2018-01-19T17:38:50.188Z,99906.44
2018-01-19T17:41:17.645Z,99907.42
2018-01-19T17:43:45.088Z,99911.03
2018-01-19T17:46:12.748Z,99905.87
2018-01-19T17:48:40.195Z,99916.34
2018-01-19T17:51:07.673Z,99916.41
2018-01-19T17:53:35.140Z,99919.94
2018-01-19T17:56:02.596Z,99927.86
2018-01-19T17:58:30.228Z,99926.97
2018-01-19T18:00:57.658Z,99930.97
2018-01-19T18:03:25.113Z,99936.62
2018-01-19T18:05:52.581Z,99933.54
2018-01-19T18:08:20.025Z,99937.50
2018-01-19T18:10:47.654Z,99939.33
2018-01-19T18:13:15.091Z,99935.83
2018-01-19T18:15:42.528Z,99940.58
2018-01-19T18:18:09.985Z,99938.39
2018-01-19T18:20:37.433Z,99937.55
2018-01-19T18:23:05.060Z,99933.64
2018-01-19T18:25:32.509Z,99935.41
2018-01-19T18:27:59.961Z,99934.58
2018-01-19T18:30:27.459Z,99932.84
2018-01-19T18:32:55.098Z,99933.71
2018-01-19T18:35:22.911Z,99935.46
2018-01-19T18:37:50.421Z,99943.33
2018-01-19T18:40:18.001Z,99946.80
2018-01-19T18:42:45.519Z,99953.38
2018-01-19T18:45:13.145Z,99953.78
2018-01-19T18:47:40.734Z,99956.86
2018-01-19T18:50:08.173Z,99955.99
2018-01-19T18:52:35.724Z,99955.98
2018-01-19T18:55:03.209Z,99953.78
2018-01-19T18:57:30.655Z,99955.55
2018-01-19T18:59:58.373Z,99954.67
2018-01-19T19:02:25.817Z,99954.71
2018-01-19T19:04:53.258Z,99957.30
2018-01-19T19:07:20.716Z,99954.70
2018-01-19T19:09:48.165Z,99964.73
2018-01-19T19:12:15.957Z,99962.09
2018-01-19T19:14:43.396Z,99960.75
2018-01-19T19:17:10.877Z,99968.17
2018-01-19T19:19:38.365Z,99968.17
2018-01-19T19:22:05.823Z,99975.63
2018-01-19T19:24:33.399Z,99974.24
2018-01-19T19:27:00.849Z,99978.17
2018-01-19T19:29:28.291Z,99982.14
2018-01-19T19:31:55.757Z,99984.71
2018-01-19T19:34:24.146Z,99994.22
2018-01-19T19:36:51.720Z,99988.59
2018-01-19T19:39:19.173Z,100004.30
2018-01-19T19:41:46.633Z,99997.21
2018-01-19T19:44:14.113Z,100003.81
2018-01-19T19:46:41.562Z,100008.17
2018-01-19T19:49:09.130Z,100007.28
2018-01-19T19:51:36.601Z,100006.42
2018-01-19T19:54:04.553Z,100007.80
2018-01-19T19:56:32.035Z,100010.41
2018-01-19T19:58:59.485Z,100012.55
2018-01-19T20:01:27.916Z,100012.11
2018-01-19T20:03:55.359Z,100006.04
2018-01-19T20:06:22.804Z,100009.05
2018-01-19T20:08:50.273Z,100007.29
2018-01-19T20:11:17.719Z,100002.98
2018-01-19T20:13:45.549Z,100009.15
2018-01-19T20:16:12.984Z,100013.41
2018-01-19T20:18:40.450Z,100012.08
2018-01-19T20:21:07.908Z,100019.44
2018-01-19T20:23:35.354Z,100023.80
2018-01-19T20:26:02.962Z,100026.86
2018-01-19T20:28:30.415Z,100023.06
2018-01-19T20:30:58.469Z,100020.45
2018-01-19T20:33:25.934Z,100022.24
2018-01-19T20:35:53.385Z,100033.16
2018-01-19T20:38:21.849Z,100034.08
2018-01-19T20:40:49.648Z,100040.63
2018-01-19T20:43:17.087Z,100044.56
2018-01-19T20:45:45.350Z,100042.38
2018-01-19T20:48:12.793Z,100044.61
2018-01-19T20:50:40.289Z,100043.30
2018-01-19T20:53:07.747Z,100041.11
2018-01-19T20:55:35.184Z,100036.75
2018-01-19T20:58:02.643Z,100035.44
2018-01-19T21:00:30.087Z,100045.48
2018-01-19T21:02:57.743Z,100042.81
2018-01-19T21:05:25.205Z,100037.52
2018-01-19T21:07:52.693Z,100039.72
2018-01-19T21:10:20.157Z,100040.64
2018-01-19T21:12:47.608Z,100033.25
2018-01-19T21:15:15.344Z,100032.86
2018-01-19T21:17:42.790Z,100030.70
2018-01-19T21:20:10.226Z,100031.58
2018-01-19T21:22:37.696Z,100027.61
2018-01-19T21:25:06.073Z,100029.39
2018-01-19T21:27:33.845Z,100038.56
2018-01-19T21:30:01.280Z,100034.17
2018-01-19T21:32:28.720Z,100042.47
2018-01-19T21:34:56.185Z,100052.94
2018-01-19T21:37:23.675Z,100057.70
2018-01-19T21:39:51.333Z,100063.86
2018-01-19T21:42:18.771Z,100056.40
2018-01-19T21:44:46.205Z,100051.67
2018-01-19T21:47:13.759Z,100051.67
2018-01-19T21:49:41.221Z,100061.68
2018-01-19T21:52:08.826Z,100062.62
2018-01-19T21:54:36.265Z,100062.15
2018-01-19T21:57:03.700Z,100061.72
2018-01-19T21:59:31.173Z,100061.75
2018-01-19T22:01:58.612Z,100062.62
2018-01-19T22:04:26.186Z,100063.05
2018-01-19T22:06:53.641Z,100069.20
2018-01-19T22:09:21.111Z,100067.88
2018-01-19T22:11:48.588Z,100068.32
2018-01-19T22:14:16.029Z,100072.71
2018-01-19T22:16:43.581Z,100068.78
2018-01-19T22:19:11.021Z,100065.27
2018-01-19T22:21:38.467Z,100065.72
2018-01-19T22:24:05.984Z,100067.03
2018-01-19T22:26:33.461Z,100076.20
2018-01-19T22:29:00.968Z,100076.66
2018-01-19T22:31:28.413Z,100075.77
2018-01-19T22:33:55.897Z,100082.76
2018-01-19T22:36:23.358Z,100077.95
2018-01-19T22:38:50.804Z,100081.45
2018-01-19T22:41:18.669Z,100079.69
2018-01-19T22:43:46.126Z,100078.38
2018-01-19T22:46:13.721Z,100076.19
2018-01-19T22:48:41.192Z,100072.20
2018-01-19T22:51:08.638Z,100069.56
2018-01-19T22:53:36.643Z,100073.08
2018-01-19T22:56:04.080Z,100074.39
2018-01-19T22:58:31.554Z,100069.55
2018-01-19T23:00:59.095Z,100079.14
2018-01-19T23:03:26.547Z,100080.47
2018-01-19T23:05:54.463Z,100078.28
2018-01-19T23:08:21.901Z,100084.41
2018-01-19T23:10:49.348Z,100085.25
2018-01-19T23:13:16.804Z,100080.45
2018-01-19T23:15:44.274Z,100080.01
2018-01-19T23:18:11.769Z,100076.97
2018-01-19T23:20:39.209Z,100071.69
2018-01-19T23:23:06.892Z,100068.19
2018-01-19T23:25:34.348Z,100066.88
2018-01-19T23:28:01.781Z,100070.34
2018-01-19T23:30:29.256Z,100063.31
2018-01-19T23:32:56.692Z,100073.01
2018-01-19T23:35:24.134Z,100076.91
2018-01-19T23:37:51.593Z,100075.15
2018-01-19T23:40:19.052Z,100069.47
2018-01-19T23:42:46.521Z,100066.83
2018-01-19T23:45:13.957Z,100060.70
2018-01-19T23:47:41.409Z,100054.58
2018-01-19T23:50:08.883Z,100055.86
2018-01-19T23:52:36.330Z,100054.09
2018-01-19T23:55:04.002Z,100054.11
2018-01-19T23:57:31.464Z,100051.05
2018-01-19T23:59:58.900Z,100045.77
